Time;durP1;ratioP1;P1;durP2;ratioP2;P2;SDS_P1;SDS_P2;PMS_P1;PMS_P2;Temp;Humidity;BMP_temperature;BMP_pressure;BME280_temperature;BME280_humidity;BME280_pressure;Samples;Min_cycle;Max_cycle;Signal;HPM_P1;HPM_P2
2022/10/17 00:00:34;;;;;;;4.20;2.58;;;19.40;66.10;;;;;;5025553;28;20053;-48
2022/10/17 00:03:02;;;;;;;6.88;3.22;;;19.40;66.00;;;;;;5041386;28;20049;-50
2022/10/17 00:05:29;;;;;;;4.32;2.72;;;19.50;66.10;;;;;;5017499;28;20061;-50
2022/10/17 00:07:56;;;;;;;3.45;2.78;;;19.50;66.00;;;;;;5022517;28;20531;-45
2022/10/17 00:10:24;;;;;;;6.15;3.13;;;19.40;66.00;;;;;;5031014;28;20053;-44
2022/10/17 00:12:52;;;;;;;6.78;3.20;;;19.50;66.00;;;;;;5043104;28;20061;-47
2022/10/17 00:15:21;;;;;;;9.05;3.15;;;19.50;66.00;;;;;;5033301;28;20049;-50
2022/10/17 00:17:48;;;;;;;4.65;2.92;;;19.50;66.10;;;;;;5036645;28;20052;-47
2022/10/17 00:20:16;;;;;;;4.05;2.83;;;19.50;66.00;;;;;;5035763;28;20056;-50
2022/10/17 00:22:43;;;;;;;3.05;2.75;;;19.50;66.00;;;;;;5026010;28;20064;-47
2022/10/17 00:25:11;;;;;;;5.10;3.05;;;19.50;65.90;;;;;;5016413;28;20056;-49
2022/10/17 00:27:40;;;;;;;4.60;3.00;;;19.50;65.90;;;;;;5021492;28;20049;-51
2022/10/17 00:30:11;;;;;;;6.00;2.95;;;19.50;65.90;;;;;;5024169;28;20060;-49
2022/10/17 00:32:40;;;;;;;4.55;2.80;;;19.60;66.00;;;;;;5022634;28;20060;-44
2022/10/17 00:35:08;;;;;;;5.97;2.70;;;19.60;65.90;;;;;;5025116;28;20556;-48
2022/10/17 00:37:36;;;;;;;6.35;3.00;;;19.60;65.80;;;;;;5041721;28;20520;-50
2022/10/17 00:40:04;;;;;;;6.97;3.20;;;19.60;65.60;;;;;;5032650;28;20460;-53
2022/10/17 00:42:31;;;;;;;5.50;2.85;;;19.60;66.10;;;;;;5039126;28;20044;-47
2022/10/17 00:45:12;;;;;;;5.60;2.95;;;19.60;65.30;;;;;;5025708;28;20045;-48
2022/10/17 00:47:42;;;;;;;6.22;2.65;;;19.60;65.40;;;;;;5042537;28;20390;-52
2022/10/17 00:50:10;;;;;;;6.28;3.13;;;19.60;65.20;;;;;;5037594;28;20413;-50
2022/10/17 00:52:37;;;;;;;4.63;3.30;;;19.60;65.20;;;;;;5035414;28;20431;-47
2022/10/17 00:55:12;;;;;;;9.10;3.33;;;19.60;65.10;;;;;;5033129;28;20496;-47
2022/10/17 00:57:39;;;;;;;;;;;19.60;65.00;;;;;;5034206;28;20429;-48
2022/10/17 01:00:09;;;;;;;7.18;3.05;;;19.70;65.00;;;;;;5037233;28;19925;-49
2022/10/17 01:02:37;;;;;;;6.95;2.95;;;19.70;64.70;;;;;;5026417;28;20080;-49
2022/10/17 01:05:07;;;;;;;7.30;3.15;;;19.70;64.50;;;;;;5002562;28;20050;-49
2022/10/17 01:07:35;;;;;;;9.07;3.15;;;19.60;64.50;;;;;;5000680;28;20049;-48
2022/10/17 01:10:03;;;;;;;6.57;2.88;;;19.60;64.50;;;;;;5000954;28;20064;-49
2022/10/17 01:12:54;;;;;;;6.55;3.22;;;19.60;64.60;;;;;;5003291;28;20058;-49
2022/10/17 01:15:29;;;;;;;8.55;3.15;;;19.60;64.60;;;;;;4995061;28;20510;-47
2022/10/17 01:18:08;;;;;;;4.95;2.78;;;19.60;64.40;;;;;;5002254;28;20064;-47
2022/10/17 01:21:01;;;;;;;5.72;3.05;;;19.60;64.40;;;;;;4999573;28;20489;-53
2022/10/17 01:23:46;;;;;;;9.18;3.00;;;19.60;64.30;;;;;;4993498;28;20049;-48
2022/10/17 01:26:22;;;;;;;5.15;2.85;;;19.60;64.20;;;;;;5002267;28;20054;-49
2022/10/17 01:29:26;;;;;;;6.55;3.03;;;19.60;64.10;;;;;;5003445;28;20069;-44
2022/10/17 01:31:59;;;;;;;5.40;3.15;;;19.60;64.00;;;;;;4998419;28;20058;-46
2022/10/17 01:34:34;;;;;;;6.63;2.60;;;19.60;64.00;;;;;;5002554;28;20536;-44
2022/10/17 01:37:06;;;;;;;5.03;3.00;;;19.60;64.00;;;;;;5000314;28;20054;-45
2022/10/17 01:39:41;;;;;;;3.65;2.50;;;19.60;64.10;;;;;;4997848;28;20395;-49
2022/10/17 01:42:15;;;;;;;5.60;2.72;;;19.60;64.00;;;;;;4996685;28;20058;-47
2022/10/17 01:44:46;;;;;;;;;;;19.60;64.00;;;;;;5000652;28;20058;-48
2022/10/17 01:47:19;;;;;;;5.72;2.67;;;19.70;64.10;;;;;;5001462;28;19933;-50
2022/10/17 01:49:50;;;;;;;6.57;3.08;;;19.70;63.70;;;;;;5002772;28;20080;-47
2022/10/17 01:52:22;;;;;;;8.02;3.03;;;19.60;63.60;;;;;;5000875;28;20057;-50
2022/10/17 01:54:53;;;;;;;3.22;2.67;;;19.70;63.60;;;;;;5002465;28;20551;-53
2022/10/17 01:57:29;;;;;;;4.53;2.72;;;19.70;63.50;;;;;;5002160;28;20057;-49
2022/10/17 01:59:57;;;;;;;5.95;3.00;;;19.60;63.50;;;;;;5001346;28;20054;-53
2022/10/17 02:02:27;;;;;;;8.95;2.90;;;19.70;63.50;;;;;;4999967;28;20066;-44
2022/10/17 02:04:56;;;;;;;7.57;2.90;;;19.70;63.50;;;;;;5002636;28;20061;-48
2022/10/17 02:07:24;;;;;;;8.05;3.28;;;19.60;63.50;;;;;;4997701;28;20081;-49
2022/10/17 02:09:51;;;;;;;4.00;2.35;;;19.70;63.60;;;;;;5000373;28;20062;-48
2022/10/17 02:12:35;;;;;;;4.28;2.85;;;19.60;63.60;;;;;;4988247;28;20061;-48
2022/10/17 02:15:30;;;;;;;8.85;3.15;;;19.70;63.70;;;;;;4989261;28;20384;-49
2022/10/17 02:18:15;;;;;;;9.90;3.25;;;19.70;63.60;;;;;;4994568;28;20046;-46
2022/10/17 02:20:50;;;;;;;4.03;2.85;;;19.70;63.50;;;;;;4997612;28;20264;-48
2022/10/17 02:23:24;;;;;;;8.43;3.58;;;19.70;63.40;;;;;;5000952;28;20061;-48
2022/10/17 02:25:57;;;;;;;3.90;2.75;;;19.70;63.40;;;;;;4996546;28;20053;-54
2022/10/17 02:28:31;;;;;;;9.20;3.25;;;19.70;63.40;;;;;;4997771;28;20433;-47
2022/10/17 02:31:02;;;;;;;3.92;3.15;;;19.70;63.30;;;;;;4995884;28;20511;-48
2022/10/17 02:33:35;;;;;;;3.83;2.80;;;19.70;63.30;;;;;;4994551;28;20426;-49
2022/10/17 02:36:08;;;;;;;4.32;2.72;;;19.70;63.20;;;;;;5006103;28;20046;-44
2022/10/17 02:38:36;;;;;;;4.27;2.63;;;19.80;63.80;;;;;;5001862;28;20061;-49
2022/10/17 02:41:06;;;;;;;4.90;2.60;;;19.80;63.10;;;;;;4998676;28;20414;-47
2022/10/17 02:43:34;;;;;;;5.45;2.80;;;19.80;63.00;;;;;;5002330;28;20068;-44
2022/10/17 02:46:02;;;;;;;7.97;2.75;;;19.70;62.90;;;;;;5001912;28;20062;-45
2022/10/17 02:48:38;;;;;;;7.28;2.60;;;19.80;62.90;;;;;;5003795;28;20057;-48
2022/10/17 02:51:12;;;;;;;4.45;3.05;;;19.80;62.80;;;;;;4996897;28;20490;-53
2022/10/17 02:53:46;;;;;;;6.13;2.65;;;19.80;62.80;;;;;;4985091;28;20058;-45
2022/10/17 02:56:18;;;;;;;8.43;2.50;;;19.80;62.80;;;;;;4990647;28;20065;-47
2022/10/17 02:58:48;;;;;;;6.70;3.00;;;19.80;62.70;;;;;;5002987;28;20480;-49
2022/10/17 03:01:17;;;;;;;6.82;3.00;;;19.80;62.60;;;;;;4988244;28;20069;-46
2022/10/17 03:03:45;;;;;;;4.43;2.67;;;19.80;62.70;;;;;;4988347;28;20493;-47
2022/10/17 03:06:12;;;;;;;3.35;2.83;;;19.80;62.60;;;;;;4995887;28;20053;-48
2022/10/17 03:08:40;;;;;;;9.68;2.78;;;19.70;62.50;;;;;;5000511;28;20510;-47
2022/10/17 03:11:07;;;;;;;5.10;2.60;;;19.70;62.40;;;;;;5003776;28;20058;-46
2022/10/17 03:13:34;;;;;;;6.30;2.83;;;19.70;62.40;;;;;;5001925;28;20454;-49
2022/10/17 03:16:01;;;;;;;4.25;2.80;;;19.70;62.40;;;;;;4992283;28;20591;-47
2022/10/17 03:18:29;;;;;;;9.02;3.08;;;19.70;62.40;;;;;;5003208;28;21084;-47
2022/10/17 03:20:57;;;;;;;3.90;2.83;;;19.70;62.40;;;;;;4995816;28;20491;-46
2022/10/17 03:23:24;;;;;;;8.50;3.35;;;19.70;62.30;;;;;;4999880;28;20057;-49
2022/10/17 03:25:51;;;;;;;3.65;2.45;;;19.70;62.30;;;;;;4998947;28;20061;-51
2022/10/17 03:28:19;;;;;;;3.88;3.05;;;19.70;62.30;;;;;;5003241;28;20049;-50
2022/10/17 03:30:46;;;;;;;8.10;2.95;;;19.70;62.40;;;;;;4986963;28;20288;-50
2022/10/17 03:33:14;;;;;;;8.68;3.05;;;19.70;62.30;;;;;;4991782;28;20065;-46
2022/10/17 03:35:41;;;;;;;4.30;2.83;;;19.70;62.20;;;;;;4997379;28;20050;-49
2022/10/17 03:38:10;;;;;;;6.25;3.00;;;19.70;62.20;;;;;;4986489;28;20054;-48
2022/10/17 03:40:37;;;;;;;9.60;2.92;;;19.70;62.20;;;;;;4992439;28;20053;-47
2022/10/17 03:43:04;;;;;;;5.35;2.55;;;19.70;62.10;;;;;;5005476;28;20057;-48
2022/10/17 03:45:32;;;;;;;4.57;3.05;;;19.70;62.20;;;;;;5000557;28;20049;-50
2022/10/17 03:47:59;;;;;;;4.22;2.60;;;19.70;62.20;;;;;;4988645;28;20073;-50
2022/10/17 03:50:26;;;;;;;7.22;3.38;;;19.60;62.10;;;;;;4993690;28;20054;-46
2022/10/17 03:52:53;;;;;;;4.82;3.13;;;19.60;62.10;;;;;;4995761;28;20061;-48
2022/10/17 03:55:22;;;;;;;4.00;2.88;;;19.60;62.10;;;;;;4998774;28;20049;-48
2022/10/17 03:57:49;;;;;;;3.75;2.88;;;19.60;62.10;;;;;;4989263;28;20054;-52
2022/10/17 04:00:16;;;;;;;3.58;2.65;;;19.60;62.20;;;;;;4999968;28;20069;-46
2022/10/17 04:02:44;;;;;;;4.10;2.78;;;19.60;62.20;;;;;;4992379;28;20064;-46
2022/10/17 04:05:11;;;;;;;6.47;3.13;;;19.60;62.30;;;;;;5003749;28;20065;-45
2022/10/17 04:07:38;;;;;;;9.43;3.22;;;19.60;62.30;;;;;;5000202;28;20398;-48
2022/10/17 04:10:06;;;;;;;8.15;3.00;;;19.60;62.30;;;;;;4982475;28;20066;-54
2022/10/17 04:12:35;;;;;;;9.57;2.80;;;19.60;62.20;;;;;;5003028;28;20054;-51
2022/10/17 04:15:02;;;;;;;5.85;3.20;;;19.60;62.30;;;;;;4999987;28;20399;-46
2022/10/17 04:17:30;;;;;;;5.18;2.75;;;19.60;62.30;;;;;;4985397;28;20054;-48
2022/10/17 04:19:57;;;;;;;6.00;3.22;;;19.60;62.20;;;;;;4993941;28;20053;-51
2022/10/17 04:22:25;;;;;;;7.38;2.97;;;19.60;62.20;;;;;;4981990;28;20058;-49
2022/10/17 04:24:52;;;;;;;9.07;3.20;;;19.60;62.20;;;;;;4989314;28;20069;-47
2022/10/17 04:27:19;;;;;;;5.05;3.05;;;19.60;62.20;;;;;;5000435;28;20406;-49
2022/10/17 04:29:48;;;;;;;7.63;2.70;;;19.60;62.20;;;;;;4990949;28;20058;-46
2022/10/17 04:32:15;;;;;;;6.03;2.90;;;19.60;62.20;;;;;;4993821;28;20058;-48
2022/10/17 04:34:42;;;;;;;6.13;2.97;;;19.60;62.10;;;;;;4994357;28;20078;-48
2022/10/17 04:37:09;;;;;;;4.57;2.63;;;19.60;62.10;;;;;;4995419;28;20065;-48
2022/10/17 04:39:36;;;;;;;7.82;2.80;;;19.60;62.20;;;;;;5001985;28;20090;-48
2022/10/17 04:42:04;;;;;;;4.90;2.85;;;19.60;62.10;;;;;;4994028;28;20062;-48
2022/10/17 04:44:32;;;;;;;4.82;2.80;;;19.60;62.10;;;;;;4990058;28;20426;-48
2022/10/17 04:47:01;;;;;;;5.65;2.92;;;19.60;62.00;;;;;;4994656;28;20046;-46
2022/10/17 04:49:28;;;;;;;4.50;2.83;;;19.60;61.90;;;;;;5003973;28;20084;-49
2022/10/17 04:51:55;;;;;;;7.68;2.92;;;19.60;61.80;;;;;;4997835;28;20061;-45
2022/10/17 04:54:22;;;;;;;4.05;3.03;;;19.60;61.70;;;;;;5002325;28;20068;-47
2022/10/17 04:56:49;;;;;;;7.18;2.70;;;19.60;61.60;;;;;;4989280;28;20057;-47
2022/10/17 04:59:16;;;;;;;7.30;2.63;;;19.60;61.60;;;;;;5002515;28;20430;-47
2022/10/17 05:01:44;;;;;;;6.18;2.45;;;19.60;61.60;;;;;;4985129;28;20050;-48
2022/10/17 05:04:12;;;;;;;9.18;3.90;;;19.60;61.60;;;;;;5003201;28;20060;-45
2022/10/17 05:06:39;;;;;;;4.50;2.97;;;19.60;61.50;;;;;;5002805;28;20521;-52
2022/10/17 05:09:06;;;;;;;4.47;3.13;;;19.60;61.40;;;;;;5003327;28;20418;-46
2022/10/17 05:11:34;;;;;;;4.65;3.03;;;19.60;61.30;;;;;;5001099;28;20414;-47
2022/10/17 05:14:02;;;;;;;5.78;3.20;;;19.50;61.30;;;;;;5003283;28;20053;-49
2022/10/17 05:16:30;;;;;;;6.82;2.60;;;19.50;61.30;;;;;;4997877;28;20046;-45
2022/10/17 05:18:58;;;;;;;4.95;3.00;;;19.50;61.40;;;;;;4991431;28;20057;-47
2022/10/17 05:21:28;;;;;;;4.50;2.90;;;19.50;61.30;;;;;;4985668;28;20510;-46
2022/10/17 05:23:56;;;;;;;6.28;2.92;;;19.50;61.30;;;;;;4991186;28;20058;-46
2022/10/17 05:26:24;;;;;;;12.75;9.00;;;19.50;61.30;;;;;;4985634;28;20050;-47
2022/10/17 05:28:53;;;;;;;18.10;8.77;;;19.50;61.40;;;;;;4990892;28;20060;-51
2022/10/17 05:31:20;;;;;;;12.93;8.48;;;19.50;61.40;;;;;;4979556;28;20069;-46
2022/10/17 05:33:47;;;;;;;7.38;4.50;;;19.50;61.40;;;;;;4983398;28;20053;-45
2022/10/17 05:36:15;;;;;;;6.53;3.63;;;19.50;61.40;;;;;;4981720;28;20126;-47
2022/10/17 05:38:48;;;;;;;4.05;2.90;;;19.50;61.40;;;;;;4982390;28;20061;-47
2022/10/17 05:41:15;;;;;;;6.63;3.00;;;19.50;61.40;;;;;;4991717;28;20062;-47
2022/10/17 05:43:42;;;;;;;4.28;2.85;;;19.50;61.40;;;;;;4983181;28;20050;-48
2022/10/17 05:46:10;;;;;;;6.13;2.75;;;19.50;61.30;;;;;;4994366;28;20057;-46
2022/10/17 05:48:37;;;;;;;6.07;2.78;;;19.50;61.30;;;;;;4995436;28;20050;-48
2022/10/17 05:51:07;;;;;;;6.70;2.95;;;19.50;61.30;;;;;;4990800;28;20081;-45
2022/10/17 05:53:37;;;;;;;5.28;2.80;;;19.50;61.40;;;;;;4989856;28;20379;-50
2022/10/17 05:56:08;;;;;;;4.57;2.67;;;19.50;61.30;;;;;;4981982;28;20050;-48
2022/10/17 05:58:35;;;;;;;6.15;3.10;;;19.50;61.20;;;;;;5002536;28;20058;-50
2022/10/17 06:01:05;;;;;;;6.25;3.67;;;19.50;61.20;;;;;;4991456;28;20060;-49
2022/10/17 06:03:33;;;;;;;5.43;2.95;;;19.50;61.10;;;;;;4981815;28;20062;-44
2022/10/17 06:06:03;;;;;;;4.53;3.10;;;19.50;61.00;;;;;;4987316;28;20517;-44
2022/10/17 06:08:31;;;;;;;11.07;3.00;;;19.40;60.90;;;;;;5000171;28;20053;-52
2022/10/17 06:10:58;;;;;;;4.35;2.88;;;19.40;60.80;;;;;;5003787;28;20053;-49
2022/10/17 06:13:27;;;;;;;7.80;2.67;;;19.40;60.90;;;;;;4997533;28;20058;-49
2022/10/17 06:15:58;;;;;;;8.00;2.95;;;19.40;61.00;;;;;;4999925;28;20053;-49
2022/10/17 06:18:26;;;;;;;6.13;2.50;;;19.40;61.00;;;;;;5006347;28;20065;-49
2022/10/17 06:20:54;;;;;;;5.15;2.67;;;19.40;61.00;;;;;;4999181;28;20050;-48
2022/10/17 06:23:22;;;;;;;3.95;2.83;;;19.40;61.10;;;;;;5005738;28;20532;-47
2022/10/17 06:25:49;;;;;;;5.10;2.95;;;19.40;61.80;;;;;;4995032;28;20511;-46
2022/10/17 06:28:17;;;;;;;6.78;3.13;;;19.40;61.20;;;;;;5006247;28;20057;-46
2022/10/17 06:30:46;;;;;;;4.50;3.00;;;19.40;61.20;;;;;;5004811;28;20053;-50
2022/10/17 06:33:15;;;;;;;5.90;2.83;;;19.40;61.30;;;;;;5006261;28;20058;-46
2022/10/17 06:35:43;;;;;;;5.07;3.08;;;19.40;61.20;;;;;;5000491;28;20053;-47
2022/10/17 06:38:10;;;;;;;5.97;2.92;;;19.40;61.20;;;;;;5004624;28;20512;-48
2022/10/17 06:40:38;;;;;;;5.03;2.55;;;19.40;61.20;;;;;;5003295;28;20068;-48
2022/10/17 06:43:06;;;;;;;4.50;2.33;;;19.30;61.20;;;;;;4998676;28;20590;-49
2022/10/17 06:45:34;;;;;;;10.30;3.28;;;19.30;61.20;;;;;;5004347;28;20058;-48
2022/10/17 06:48:03;;;;;;;4.20;2.35;;;19.40;61.40;;;;;;4995799;28;20054;-45
2022/10/17 06:50:33;;;;;;;9.30;3.00;;;19.40;61.30;;;;;;4994310;28;20046;-48
2022/10/17 06:53:01;;;;;;;3.90;2.63;;;19.30;61.30;;;;;;5006524;28;20077;-51
2022/10/17 06:55:28;;;;;;;4.38;3.00;;;19.40;61.40;;;;;;4997654;28;20057;-47
2022/10/17 06:57:56;;;;;;;5.32;3.20;;;19.40;61.40;;;;;;4996557;28;20057;-47
2022/10/17 07:00:25;;;;;;;5.22;2.72;;;19.40;61.50;;;;;;4993646;28;20406;-45
2022/10/17 07:02:53;;;;;;;7.88;3.00;;;19.40;61.50;;;;;;4999562;28;20054;-52
2022/10/17 07:05:21;;;;;;;10.63;2.72;;;19.40;61.60;;;;;;5004459;28;20076;-46
2022/10/17 07:07:48;;;;;;;4.03;2.75;;;19.40;61.60;;;;;;5002572;28;20054;-49
2022/10/17 07:10:16;;;;;;;11.20;3.35;;;19.40;61.70;;;;;;5004404;28;22044;-48
2022/10/17 07:12:44;;;;;;;3.80;2.90;;;19.40;61.80;;;;;;5005533;28;20061;-53
2022/10/17 07:15:12;;;;;;;7.72;3.00;;;19.40;61.80;;;;;;5001018;28;20049;-50
2022/10/17 07:17:39;;;;;;;4.85;2.83;;;19.40;61.90;;;;;;5003015;28;20061;-49
2022/10/17 07:20:07;;;;;;;4.45;2.63;;;19.40;61.90;;;;;;5005026;28;20054;-51
2022/10/17 07:22:36;;;;;;;6.80;2.67;;;19.50;62.00;;;;;;5005852;28;20064;-48
2022/10/17 07:25:03;;;;;;;6.05;2.33;;;19.50;62.00;;;;;;4997868;28;20046;-52
2022/10/17 07:27:30;;;;;;;3.83;2.45;;;19.50;62.00;;;;;;5004066;28;20057;-45
2022/10/17 07:29:58;;;;;;;7.38;3.03;;;19.60;62.10;;;;;;5002769;28;20060;-48
2022/10/17 07:32:25;;;;;;;5.25;2.78;;;19.60;62.00;;;;;;4996884;28;20457;-48
2022/10/17 07:34:52;;;;;;;6.35;2.50;;;19.60;62.10;;;;;;5004921;28;20054;-46
2022/10/17 07:37:19;;;;;;;6.28;2.72;;;19.60;62.00;;;;;;4995441;28;20054;-49
2022/10/17 07:39:48;;;;;;;7.60;3.08;;;19.60;62.00;;;;;;5001204;28;20065;-50
2022/10/17 07:42:15;;;;;;;4.75;2.58;;;19.60;61.90;;;;;;5001409;28;20057;-47
2022/10/17 07:44:44;;;;;;;4.80;2.92;;;19.60;61.90;;;;;;4990633;28;20058;-51
2022/10/17 07:47:12;;;;;;;14.40;3.47;;;19.70;61.90;;;;;;4989801;28;20050;-49
2022/10/17 07:49:41;;;;;;;4.53;2.92;;;19.70;61.80;;;;;;5002875;28;20054;-48
2022/10/17 07:52:09;;;;;;;5.55;2.92;;;19.70;61.80;;;;;;4990565;28;20054;-47
2022/10/17 07:54:37;;;;;;;10.82;7.00;;;19.70;62.50;;;;;;5003089;28;20073;-49
2022/10/17 07:57:06;;;;;;;14.05;7.35;;;19.70;61.70;;;;;;4999851;28;20050;-53
2022/10/17 07:59:34;;;;;;;9.02;3.92;;;19.80;61.80;;;;;;4998430;28;20057;-48
2022/10/17 08:02:01;;;;;;;8.43;3.75;;;19.80;61.90;;;;;;5000765;28;20050;-48
2022/10/17 08:04:29;;;;;;;4.82;3.05;;;19.80;61.90;;;;;;4999567;28;20057;-47
2022/10/17 08:06:56;;;;;;;8.20;3.08;;;19.80;61.80;;;;;;4996969;28;20065;-50
2022/10/17 08:09:23;;;;;;;6.57;3.00;;;19.80;61.80;;;;;;5004764;28;20054;-47
2022/10/17 08:11:50;;;;;;;5.68;3.03;;;19.80;61.80;;;;;;5002718;28;20054;-52
2022/10/17 08:14:19;;;;;;;3.17;2.65;;;19.80;61.80;;;;;;5004422;28;20421;-50
2022/10/17 08:16:46;;;;;;;4.47;2.85;;;19.90;61.90;;;;;;5003451;28;20057;-48
2022/10/17 08:19:13;;;;;;;4.30;2.95;;;19.90;61.90;;;;;;4992305;28;20403;-49
2022/10/17 08:21:42;;;;;;;6.03;2.80;;;19.90;61.80;;;;;;4993518;28;20057;-47
2022/10/17 08:24:09;;;;;;;4.72;2.67;;;19.90;61.90;;;;;;5000870;28;20053;-48
2022/10/17 08:26:37;;;;;;;11.63;3.20;;;20.00;62.00;;;;;;5001792;28;20057;-49
2022/10/17 08:29:04;;;;;;;6.75;3.17;;;20.00;62.10;;;;;;4995891;28;20059;-47
2022/10/17 08:31:32;;;;;;;4.72;2.97;;;20.00;62.10;;;;;;5001742;28;20258;-48
2022/10/17 08:33:59;;;;;;;4.82;2.85;;;20.00;62.30;;;;;;5003409;28;20524;-48
2022/10/17 08:36:28;;;;;;;11.30;3.90;;;20.10;62.40;;;;;;4996049;28;20545;-48
2022/10/17 08:38:55;;;;;;;6.78;3.03;;;20.10;62.30;;;;;;4995975;28;20443;-46
2022/10/17 08:41:37;;;;;;;5.95;3.33;;;20.10;62.30;;;;;;5002880;28;20050;-45
2022/10/17 08:44:14;;;;;;;4.40;2.83;;;20.20;62.40;;;;;;5003794;28;20422;-51
2022/10/17 08:46:47;;;;;;;4.63;2.65;;;20.20;62.30;;;;;;5002161;28;20406;-48
2022/10/17 08:49:22;;;;;;;9.30;3.05;;;20.20;62.10;;;;;;5004327;28;20041;-49
2022/10/17 08:51:54;;;;;;;6.00;3.28;;;20.30;62.00;;;;;;5001363;28;20520;-49
2022/10/17 08:54:30;;;;;;;7.35;3.15;;;20.30;61.90;;;;;;4997489;28;20064;-49
2022/10/17 08:56:58;;;;;;;5.95;3.08;;;20.30;61.70;;;;;;4994861;28;20054;-48
2022/10/17 08:59:27;;;;;;;6.25;2.78;;;20.30;61.60;;;;;;5003245;28;20068;-49
2022/10/17 09:02:02;;;;;;;5.32;3.00;;;20.40;61.80;;;;;;4998542;28;20405;-47
2022/10/17 09:04:50;;;;;;;10.10;3.13;;;20.40;61.80;;;;;;5002659;28;20061;-53
2022/10/17 09:07:27;;;;;;;5.70;2.83;;;20.40;61.80;;;;;;4999771;28;20537;-51
2022/10/17 09:10:02;;;;;;;5.45;2.90;;;20.50;62.50;;;;;;5004317;28;20050;-48
2022/10/17 09:12:38;;;;;;;3.33;2.63;;;20.50;61.90;;;;;;4995160;28;20057;-49
2022/10/17 09:15:39;;;;;;;7.43;3.38;;;20.50;61.70;;;;;;4994984;28;20054;-51
2022/10/17 09:18:13;;;;;;;4.97;2.67;;;20.60;61.90;;;;;;4998142;28;20364;-48
2022/10/17 09:20:45;;;;;;;8.25;3.25;;;20.60;61.70;;;;;;4994355;28;20055;-48
2022/10/17 09:23:17;;;;;;;7.47;3.20;;;20.70;61.70;;;;;;4995817;28;20054;-51
2022/10/17 09:25:47;;;;;;;8.80;3.00;;;20.70;61.70;;;;;;5003915;28;20069;-47
2022/10/17 09:28:20;;;;;;;9.77;3.58;;;20.70;61.50;;;;;;5003833;28;20058;-44
2022/10/17 09:30:51;;;;;;;5.22;2.65;;;20.70;61.10;;;;;;4991810;28;20060;-49
2022/10/17 09:33:24;;;;;;;5.43;2.80;;;20.70;60.70;;;;;;5000691;28;20524;-48
2022/10/17 09:35:52;;;;;;;5.93;3.25;;;20.70;61.00;;;;;;4999268;28;20108;-48
2022/10/17 09:38:22;;;;;;;6.57;3.00;;;20.80;61.10;;;;;;4998407;28;20050;-50
2022/10/17 09:40:54;;;;;;;4.10;2.67;;;20.80;61.10;;;;;;4999195;28;20052;-51
2022/10/17 09:43:22;;;;;;;4.20;2.78;;;20.80;61.10;;;;;;4991559;28;20081;-48
2022/10/17 09:45:59;;;;;;;11.98;2.92;;;20.90;61.20;;;;;;4992865;28;20406;-49
2022/10/17 09:48:35;;;;;;;9.43;3.15;;;20.90;61.20;;;;;;5003903;28;20053;-47
2022/10/17 09:51:03;;;;;;;5.18;3.10;;;20.90;61.50;;;;;;5001548;28;20049;-47
2022/10/17 09:53:36;;;;;;;6.25;2.95;;;20.90;61.60;;;;;;5003311;28;20058;-48
2022/10/17 09:56:08;;;;;;;6.93;3.20;;;21.00;61.90;;;;;;5002248;28;21300;-51
2022/10/17 09:58:41;;;;;;;4.35;2.63;;;21.00;62.10;;;;;;5003753;28;20049;-53
2022/10/17 10:01:17;;;;;;;6.50;3.10;;;21.00;61.90;;;;;;4996207;28;20552;-52
2022/10/17 10:03:47;;;;;;;8.75;3.10;;;21.00;61.80;;;;;;4997076;28;20077;-48
2022/10/17 10:06:16;;;;;;;8.57;3.03;;;21.10;61.90;;;;;;4995010;28;20058;-49
2022/10/17 10:08:52;;;;;;;15.70;3.60;;;21.10;62.00;;;;;;5002549;28;20048;-51
2022/10/17 10:11:22;;;;;;;7.30;3.20;;;21.20;62.10;;;;;;5001977;28;20083;-49
2022/10/17 10:13:50;;;;;;;5.15;2.80;;;21.20;62.10;;;;;;4998063;28;20050;-51
2022/10/17 10:16:24;;;;;;;7.50;2.90;;;21.30;62.20;;;;;;5000677;28;21045;-49
2022/10/17 10:18:53;;;;;;;3.72;2.75;;;21.30;62.10;;;;;;5003261;28;20053;-50
2022/10/17 10:21:21;;;;;;;7.07;2.60;;;21.40;62.20;;;;;;5002153;28;20049;-47
2022/10/17 10:24:13;;;;;;;4.82;2.90;;;21.40;62.10;;;;;;5002807;28;20514;-51
2022/10/17 10:26:44;;;;;;;4.72;3.45;;;21.50;62.10;;;;;;5001712;28;20057;-51
2022/10/17 10:29:22;;;;;;;6.63;3.20;;;21.50;62.20;;;;;;4993281;28;20053;-49
2022/10/17 10:31:50;;;;;;;12.68;3.42;;;21.50;62.20;;;;;;4994176;28;20042;-49
2022/10/17 10:34:23;;;;;;;10.52;3.55;;;21.60;62.20;;;;;;5000108;28;20057;-50
2022/10/17 10:36:56;;;;;;;8.43;3.05;;;21.60;62.10;;;;;;4991881;28;20055;-48
2022/10/17 10:39:35;;;;;;;6.88;3.08;;;21.70;61.90;;;;;;5002128;28;20062;-48
2022/10/17 10:42:05;;;;;;;8.55;2.90;;;21.70;62.00;;;;;;4994643;28;20054;-46
2022/10/17 10:44:36;;;;;;;4.43;2.70;;;21.80;62.20;;;;;;4993345;28;20051;-51
2022/10/17 10:47:09;;;;;;;7.57;3.22;;;21.80;62.20;;;;;;5001502;28;20065;-47
2022/10/17 10:49:39;;;;;;;6.65;3.08;;;21.80;61.90;;;;;;4999832;28;20497;-50
2022/10/17 10:52:08;;;;;;;4.70;3.00;;;21.90;61.90;;;;;;5001785;28;20069;-50
2022/10/17 10:54:40;;;;;;;6.15;2.95;;;21.90;61.70;;;;;;5004266;28;20057;-51
2022/10/17 10:57:18;;;;;;;7.22;3.92;;;21.90;61.50;;;;;;5004051;28;20064;-50
2022/10/17 10:59:58;;;;;;;10.82;5.10;;;22.00;61.50;;;;;;5005491;28;20050;-49
2022/10/17 11:02:30;;;;;;;12.30;5.70;;;22.00;61.20;;;;;;5004042;28;20054;-48
2022/10/17 11:05:04;;;;;;;5.20;3.10;;;22.00;61.20;;;;;;4999316;28;20061;-52
2022/10/17 11:07:36;;;;;;;7.00;3.22;;;22.10;61.10;;;;;;4989529;28;20058;-48
2022/10/17 11:10:10;;;;;;;10.15;3.53;;;22.10;61.00;;;;;;4984554;28;20050;-50
2022/10/17 11:12:39;;;;;;;;;;;22.10;61.00;;;;;;4983085;28;20418;-49
2022/10/17 11:15:17;;;;;;;8.77;3.85;;;22.20;61.20;;;;;;4983887;28;19933;-49
2022/10/17 11:17:51;;;;;;;8.10;3.65;;;22.20;60.90;;;;;;4983693;28;20054;-47
2022/10/17 11:20:26;;;;;;;8.60;3.60;;;22.20;60.80;;;;;;4985036;28;20046;-45
2022/10/17 11:22:58;;;;;;;6.28;3.13;;;22.20;60.80;;;;;;4986098;28;20051;-49
2022/10/17 11:25:33;;;;;;;4.85;3.20;;;22.20;60.90;;;;;;4983558;28;20073;-48
2022/10/17 11:28:02;;;;;;;8.73;3.42;;;22.20;60.80;;;;;;4984195;28;20061;-47
2022/10/17 11:30:41;;;;;;;6.75;3.20;;;22.30;61.00;;;;;;4981533;28;20054;-47
2022/10/17 11:33:13;;;;;;;7.97;3.60;;;22.30;61.00;;;;;;4985312;28;20050;-50
2022/10/17 11:35:45;;;;;;;12.13;3.42;;;22.30;61.00;;;;;;4978165;28;20058;-49
2022/10/17 11:38:21;;;;;;;8.00;3.25;;;22.30;61.00;;;;;;4984882;28;20418;-52
2022/10/17 11:40:51;;;;;;;4.50;2.95;;;22.30;60.10;;;;;;4987957;28;20054;-51
2022/10/17 11:43:25;;;;;;;4.60;2.97;;;22.40;60.10;;;;;;4994850;28;20418;-50
2022/10/17 11:45:58;;;;;;;7.35;3.33;;;22.40;60.10;;;;;;4982033;28;20061;-48
2022/10/17 11:48:29;;;;;;;10.35;3.50;;;22.40;60.40;;;;;;4983464;28;20046;-49
2022/10/17 11:51:06;;;;;;;10.18;3.67;;;22.50;60.40;;;;;;4978586;28;20058;-48
2022/10/17 11:53:47;;;;;;;5.05;2.95;;;22.50;60.20;;;;;;4981933;28;20054;-47
2022/10/17 11:56:20;;;;;;;11.25;3.03;;;22.60;59.50;;;;;;4980128;28;20050;-47
2022/10/17 11:58:53;;;;;;;14.48;2.65;;;22.60;59.20;;;;;;4984107;28;20407;-47
2022/10/17 12:01:32;;;;;;;16.67;3.30;;;22.60;59.20;;;;;;4981718;28;20069;-48
2022/10/17 12:04:22;;;;;;;8.57;3.13;;;22.70;59.30;;;;;;4991035;28;20050;-46
2022/10/17 12:07:04;;;;;;;10.88;2.90;;;22.70;59.10;;;;;;4991087;28;20053;-54
2022/10/17 12:09:40;;;;;;;5.93;2.58;;;22.80;58.90;;;;;;5003542;28;20689;-49
2022/10/17 12:12:08;;;;;;;7.15;2.67;;;22.80;58.60;;;;;;5000109;28;20066;-46
2022/10/17 12:14:41;;;;;;;3.92;2.50;;;22.80;58.50;;;;;;5004238;28;20060;-49
2022/10/17 12:17:31;;;;;;;10.07;2.92;;;22.80;58.60;;;;;;5000944;28;20057;-48
2022/10/17 12:20:25;;;;;;;3.78;2.13;;;22.90;58.60;;;;;;5002729;28;20046;-50
2022/10/17 12:22:55;;;;;;;6.47;2.72;;;22.90;58.50;;;;;;5004271;28;20084;-48
2022/10/17 12:25:28;;;;;;;6.18;2.40;;;23.00;58.60;;;;;;5003409;28;20050;-47
2022/10/17 12:28:13;;;;;;;6.32;2.70;;;23.00;58.60;;;;;;5003061;28;20413;-46
2022/10/17 12:30:51;;;;;;;4.13;2.35;;;23.00;58.30;;;;;;4997435;28;20054;-50
2022/10/17 12:33:21;;;;;;;5.10;2.83;;;23.10;58.30;;;;;;5004557;28;20498;-53
2022/10/17 12:35:50;;;;;;;5.70;2.50;;;23.10;58.20;;;;;;5002872;28;20429;-48
2022/10/17 12:38:27;;;;;;;7.25;2.85;;;23.10;57.80;;;;;;5004435;28;20054;-49
2022/10/17 12:40:59;;;;;;;9.43;2.58;;;23.10;57.20;;;;;;5002932;28;20041;-48
2022/10/17 12:43:44;;;;;;;6.32;2.92;;;23.10;57.40;;;;;;5000207;28;20058;-49
2022/10/17 12:46:12;;;;;;;6.38;2.72;;;23.20;57.10;;;;;;4999761;28;20050;-45
2022/10/17 12:49:04;;;;;;;5.53;2.53;;;23.20;56.80;;;;;;5001427;28;20065;-44
2022/10/17 12:52:06;;;;;;;7.32;2.13;;;23.20;56.50;;;;;;5002234;28;20410;-47
2022/10/17 12:54:40;;;;;;;12.18;3.58;;;23.20;56.60;;;;;;4997717;28;20536;-46
2022/10/17 12:57:19;;;;;;;7.22;2.20;;;23.30;56.60;;;;;;5001483;28;20061;-54
2022/10/17 12:59:47;;;;;;;7.45;2.63;;;23.30;56.40;;;;;;5003299;28;20592;-48
2022/10/17 13:02:20;;;;;;;6.40;2.92;;;23.30;56.50;;;;;;5001408;28;20054;-48
2022/10/17 13:04:48;;;;;;;6.18;3.03;;;23.30;56.50;;;;;;5004080;28;20505;-45